Time;durP1;ratioP1;P1;durP2;ratioP2;P2;SDS_P1;SDS_P2;PMS_P1;PMS_P2;Temp;Humidity;BMP_temperature;BMP_pressure;BME280_temperature;BME280_humidity;BME280_pressure;Samples;Min_cycle;Max_cycle;Signal;HPM_P1;HPM_P2
2021/07/27 00:00:21;;;;;;;1.03;1.03;;;13.30;99.90;;;;;;2032242;29;20185;-75
2021/07/27 00:01:22;;;;;;;1.30;1.20;;;13.30;99.90;;;;;;2025589;29;20664;-77
2021/07/27 00:02:22;;;;;;;1.20;1.13;;;13.30;99.90;;;;;;2024495;29;20577;-77
2021/07/27 00:03:26;;;;;;;2.30;2.10;;;13.40;99.90;;;;;;2017280;29;20182;-77
2021/07/27 00:04:26;;;;;;;1.40;1.30;;;13.40;99.90;;;;;;2028866;29;20686;-75
2021/07/27 00:05:28;;;;;;;1.47;1.37;;;13.40;99.90;;;;;;2025285;29;20293;-77
2021/07/27 00:06:29;;;;;;;0.95;0.95;;;13.40;99.90;;;;;;2025225;29;20701;-75
2021/07/27 00:07:30;;;;;;;1.03;1.00;;;13.40;99.90;;;;;;2017045;29;20179;-73
2021/07/27 00:08:32;;;;;;;2.03;1.93;;;13.40;99.90;;;;;;2021067;29;20218;-75
2021/07/27 00:09:33;;;;;;;1.83;1.27;;;13.40;99.90;;;;;;2026975;29;20181;-73
2021/07/27 00:10:35;;;;;;;1.13;1.10;;;13.40;99.90;;;;;;2026818;29;20202;-77
2021/07/27 00:11:36;;;;;;;1.63;1.52;;;13.40;99.90;;;;;;2026259;29;20180;-77
2021/07/27 00:12:37;;;;;;;1.47;1.37;;;13.40;99.90;;;;;;2031443;29;20188;-73
2021/07/27 00:13:39;;;;;;;1.08;1.02;;;13.40;99.90;;;;;;2034040;29;20185;-76
2021/07/27 00:14:40;;;;;;;1.45;1.35;;;13.40;99.90;;;;;;2026022;29;20231;-77
2021/07/27 00:15:42;;;;;;;1.40;1.30;;;13.40;99.90;;;;;;2018564;29;20194;-73
2021/07/27 00:16:43;;;;;;;3.00;1.77;;;13.40;99.90;;;;;;2015207;29;20200;-78
2021/07/27 00:17:43;;;;;;;1.90;1.80;;;13.40;99.90;;;;;;2019228;29;20201;-77
2021/07/27 00:18:44;;;;;;;1.50;1.40;;;13.40;99.90;;;;;;2027355;29;20186;-71
2021/07/27 00:19:44;;;;;;;1.50;1.40;;;13.40;99.90;;;;;;2026572;29;20539;-76
2021/07/27 00:20:45;;;;;;;1.20;1.20;;;13.40;99.90;;;;;;2031007;29;20213;-73
2021/07/27 00:21:46;;;;;;;2.57;1.73;;;13.40;99.90;;;;;;2026118;29;20185;-76
2021/07/27 00:22:47;;;;;;;1.67;1.57;;;13.40;99.90;;;;;;2018483;29;20186;-76
2021/07/27 00:23:48;;;;;;;1.50;1.20;;;13.40;99.90;;;;;;2016914;29;20269;-76
2021/07/27 00:24:51;;;;;;;2.37;1.73;;;13.30;99.90;;;;;;2025646;29;20208;-77
2021/07/27 00:25:52;;;;;;;1.70;1.60;;;13.40;99.90;;;;;;2029216;29;20220;-76
2021/07/27 00:26:54;;;;;;;1.60;1.13;;;13.40;99.90;;;;;;2034074;29;20684;-76
2021/07/27 00:27:55;;;;;;;2.67;2.47;;;13.40;99.90;;;;;;2024915;29;20218;-75
2021/07/27 00:28:56;;;;;;;1.80;1.70;;;13.40;99.90;;;;;;2021954;29;20288;-77
2021/07/27 00:29:58;;;;;;;2.67;1.53;;;13.40;99.90;;;;;;2024959;29;20237;-76
2021/07/27 00:30:59;;;;;;;1.63;1.52;;;13.40;99.90;;;;;;2018507;29;20209;-75
2021/07/27 00:31:59;;;;;;;1.60;1.33;;;13.40;99.90;;;;;;2018590;29;20669;-76
2021/07/27 00:33:00;;;;;;;2.30;1.90;;;13.40;99.90;;;;;;2018564;29;20261;-77
2021/07/27 00:34:01;;;;;;;1.63;1.53;;;13.30;99.90;;;;;;2026497;29;20222;-76
2021/07/27 00:35:04;;;;;;;1.77;1.67;;;13.20;99.90;;;;;;2019306;29;20182;-76
2021/07/27 00:36:08;;;;;;;2.03;1.27;;;13.20;99.90;;;;;;2026636;29;20190;-76
2021/07/27 00:37:20;;;;;;;1.23;1.17;;;13.20;99.90;;;;;;2018536;29;20194;-75
2021/07/27 00:38:22;;;;;;;1.98;1.77;;;13.20;99.90;;;;;;2020558;29;20249;-76
2021/07/27 00:39:23;;;;;;;1.70;1.60;;;13.20;99.90;;;;;;2019600;29;20639;-75
2021/07/27 00:40:23;;;;;;;2.87;1.90;;;13.10;99.90;;;;;;2025850;29;20182;-74
2021/07/27 00:41:24;;;;;;;1.40;1.30;;;13.10;99.90;;;;;;2025712;29;20218;-75
2021/07/27 00:42:26;;;;;;;2.13;1.70;;;13.10;99.90;;;;;;2019148;29;20194;-75
2021/07/27 00:43:26;;;;;;;1.50;1.40;;;13.10;99.90;;;;;;2020853;29;20277;-79
2021/07/27 00:44:27;;;;;;;1.80;1.40;;;13.10;99.90;;;;;;2018516;29;20284;-71
2021/07/27 00:45:28;;;;;;;2.27;1.80;;;13.10;99.90;;;;;;2026377;29;20249;-74
2021/07/27 00:46:28;;;;;;;1.03;1.03;;;13.20;99.90;;;;;;2019968;29;20246;-76
2021/07/27 00:47:29;;;;;;;1.80;1.70;;;13.10;99.90;;;;;;2026944;29;20185;-74
2021/07/27 00:48:30;;;;;;;1.60;1.50;;;13.20;99.90;;;;;;2018850;29;20266;-76
2021/07/27 00:49:30;;;;;;;1.60;1.33;;;13.10;99.90;;;;;;2018734;29;20178;-75
2021/07/27 00:50:31;;;;;;;2.07;1.87;;;13.10;99.90;;;;;;2018839;29;20250;-76
2021/07/27 00:51:32;;;;;;;0.85;0.85;;;13.10;99.90;;;;;;2018712;29;20198;-75
2021/07/27 00:52:37;;;;;;;1.67;1.57;;;13.10;99.90;;;;;;2018586;29;20281;-74
2021/07/27 00:53:39;;;;;;;1.73;1.60;;;13.10;99.90;;;;;;2018689;29;20673;-76
2021/07/27 00:54:40;;;;;;;1.58;1.48;;;13.10;99.90;;;;;;2026587;29;20216;-76
2021/07/27 00:55:41;;;;;;;2.15;1.95;;;13.10;99.90;;;;;;2026578;29;20186;-74
2021/07/27 00:56:42;;;;;;;1.75;1.30;;;13.10;99.90;;;;;;2018802;29;20219;-76
2021/07/27 00:57:44;;;;;;;1.57;1.47;;;13.10;99.90;;;;;;2018623;29;20637;-76
2021/07/27 00:58:45;;;;;;;1.90;1.63;;;13.10;99.90;;;;;;2019281;29;20242;-74
2021/07/27 00:59:46;;;;;;;2.40;2.20;;;13.10;99.90;;;;;;2019334;29;20179;-76
2021/07/27 01:00:47;;;;;;;1.37;1.27;;;13.10;99.90;;;;;;2019154;29;20198;-75
2021/07/27 01:01:48;;;;;;;0.88;0.88;;;13.10;99.90;;;;;;2026332;29;20189;-76
2021/07/27 01:02:49;;;;;;;1.57;1.43;;;13.10;99.90;;;;;;2026368;29;20572;-76
2021/07/27 01:03:50;;;;;;;1.52;1.42;;;13.10;99.90;;;;;;2019419;29;20263;-76
2021/07/27 01:04:51;;;;;;;2.47;1.83;;;13.10;99.90;;;;;;2028213;29;20243;-75
2021/07/27 01:05:51;;;;;;;1.50;1.40;;;13.10;99.90;;;;;;2026546;29;20190;-76
2021/07/27 01:06:53;;;;;;;1.43;1.33;;;13.10;99.90;;;;;;2026172;29;20178;-76
2021/07/27 01:07:58;;;;;;;2.78;1.88;;;13.10;99.90;;;;;;2018596;29;20654;-76
2021/07/27 01:09:00;;;;;;;1.55;1.45;;;13.10;99.90;;;;;;2026546;29;20181;-75
2021/07/27 01:10:01;;;;;;;2.17;2.08;;;13.10;99.90;;;;;;2018398;29;20191;-74
2021/07/27 01:11:02;;;;;;;1.70;1.60;;;13.10;99.90;;;;;;2018408;29;20202;-76
2021/07/27 01:12:03;;;;;;;2.33;1.70;;;13.10;99.90;;;;;;2026650;29;20194;-75
2021/07/27 01:13:05;;;;;;;4.60;1.65;;;13.20;99.90;;;;;;2026164;29;20196;-76
2021/07/27 01:14:05;;;;;;;1.58;1.48;;;13.20;99.90;;;;;;2026297;29;20182;-75
2021/07/27 01:15:08;;;;;;;2.63;1.67;;;13.20;99.90;;;;;;2026767;29;20241;-76
2021/07/27 01:16:10;;;;;;;2.08;1.75;;;13.20;99.90;;;;;;2025979;29;20552;-76
2021/07/27 01:17:10;;;;;;;1.67;1.58;;;13.20;99.90;;;;;;2018191;29;20194;-76
2021/07/27 01:18:18;;;;;;;1.30;1.17;;;13.10;99.90;;;;;;2010915;29;20191;-75
2021/07/27 01:19:35;;;;;;;1.85;1.75;;;13.10;99.90;;;;;;2012403;29;20663;-77
2021/07/27 01:39:42;;;;;;;1.30;1.20;;;12.70;99.90;;;;;;2019402;29;20179;-76
2021/07/27 01:41:00;;;;;;;0.93;0.82;;;12.70;99.90;;;;;;2019007;29;20234;-75
2021/07/27 01:42:09;;;;;;;1.40;1.40;;;12.70;99.90;;;;;;2026244;29;20197;-76
2021/07/27 01:43:09;;;;;;;1.98;1.88;;;12.70;99.90;;;;;;2026239;29;20162;-76
2021/07/27 01:44:10;;;;;;;1.70;1.20;;;12.70;99.90;;;;;;2019457;29;20182;-76
2021/07/27 01:45:11;;;;;;;5.33;1.97;;;12.70;99.90;;;;;;2025899;29;20585;-76
2021/07/27 01:46:14;;;;;;;1.50;1.40;;;12.70;99.90;;;;;;2026760;29;20189;-76
2021/07/27 01:47:18;;;;;;;1.38;1.27;;;12.70;99.90;;;;;;2025779;29;20257;-75
2021/07/27 01:48:18;;;;;;;1.52;1.42;;;12.70;99.90;;;;;;2026016;29;20190;-75
2021/07/27 01:49:19;;;;;;;2.00;1.80;;;12.60;99.90;;;;;;2025878;29;20182;-75
2021/07/27 01:50:20;;;;;;;1.63;1.53;;;12.60;99.90;;;;;;2017938;29;20214;-76
2021/07/27 01:51:21;;;;;;;1.63;1.53;;;12.60;99.90;;;;;;2026046;29;20220;-75
2021/07/27 01:52:24;;;;;;;1.00;1.00;;;12.60;99.90;;;;;;2026510;29;20184;-76
2021/07/27 01:53:38;;;;;;;1.42;1.35;;;12.50;99.90;;;;;;2025979;29;20644;-75
2021/07/27 01:54:47;;;;;;;2.15;1.67;;;12.50;99.90;;;;;;2027907;29;20212;-75
2021/07/27 01:55:47;;;;;;;1.20;1.10;;;12.60;99.90;;;;;;2032621;29;20191;-75
2021/07/27 01:56:49;;;;;;;1.20;1.10;;;12.60;99.90;;;;;;2026024;29;20468;-76
2021/07/27 01:57:50;;;;;;;2.47;2.03;;;12.60;99.90;;;;;;2010648;29;20269;-76
2021/07/27 01:58:51;;;;;;;2.37;1.60;;;12.60;99.90;;;;;;2018233;29;20190;-75
2021/07/27 01:59:58;;;;;;;1.48;1.38;;;12.60;99.90;;;;;;2026502;29;20177;-76
2021/07/27 02:00:58;;;;;;;2.53;1.35;;;12.60;99.90;;;;;;2025663;29;20604;-76
2021/07/27 02:01:59;;;;;;;2.43;1.60;;;12.60;99.90;;;;;;2026166;29;20181;-74
2021/07/27 02:03:00;;;;;;;1.63;0.93;;;12.50;99.90;;;;;;2026021;29;20781;-75
2021/07/27 02:04:00;;;;;;;1.07;1.07;;;12.50;99.90;;;;;;2026164;29;20268;-75
2021/07/27 02:05:01;;;;;;;0.77;0.57;;;12.40;99.90;;;;;;2025876;29;20245;-74
2021/07/27 02:06:02;;;;;;;3.67;1.63;;;12.40;99.90;;;;;;2024454;29;20672;-75
2021/07/27 02:07:03;;;;;;;0.95;0.93;;;12.40;99.90;;;;;;2026525;29;20189;-75
2021/07/27 02:08:03;;;;;;;2.30;2.03;;;12.40;99.90;;;;;;2025791;29;20665;-75
2021/07/27 02:09:06;;;;;;;0.70;0.70;;;12.40;99.90;;;;;;2025902;29;20220;-76
2021/07/27 02:10:11;;;;;;;1.10;1.10;;;12.30;99.90;;;;;;2025693;29;20185;-75
2021/07/27 02:11:17;;;;;;;1.25;1.15;;;12.30;99.90;;;;;;2026056;29;20190;-76
2021/07/27 02:12:20;;;;;;;0.95;0.90;;;12.20;99.90;;;;;;2025697;29;20200;-76
2021/07/27 02:13:55;;;;;;;1.17;1.13;;;12.20;99.90;;;;;;2025949;29;20193;-76
2021/07/27 02:15:04;;;;;;;2.83;1.25;;;12.20;99.90;;;;;;2027788;29;20202;-75
2021/07/27 02:16:05;;;;;;;3.40;1.98;;;12.20;99.90;;;;;;2025696;29;20177;-76
2021/07/27 02:17:05;;;;;;;1.00;1.00;;;12.20;99.90;;;;;;2025808;29;20184;-74
2021/07/27 02:18:07;;;;;;;1.43;1.33;;;12.30;99.90;;;;;;2026461;29;20272;-75
2021/07/27 02:19:07;;;;;;;6.65;1.92;;;12.30;99.90;;;;;;2025824;29;20207;-74
2021/07/27 02:20:08;;;;;;;2.83;1.83;;;12.30;99.90;;;;;;2025579;29;20202;-75
2021/07/27 02:21:09;;;;;;;2.17;1.27;;;12.30;99.90;;;;;;2025681;29;20233;-74
2021/07/27 02:22:10;;;;;;;1.42;1.33;;;12.30;99.90;;;;;;2018105;29;20182;-75
2021/07/27 02:23:11;;;;;;;1.97;1.43;;;12.30;99.90;;;;;;2017858;29;20212;-76
2021/07/27 02:24:12;;;;;;;1.47;1.37;;;12.40;99.90;;;;;;2018010;29;20188;-75
2021/07/27 02:25:13;;;;;;;1.38;1.30;;;12.30;99.90;;;;;;2025769;29;20712;-76
2021/07/27 02:26:14;;;;;;;1.63;1.52;;;12.40;99.90;;;;;;2026551;29;20265;-76
2021/07/27 02:27:15;;;;;;;1.60;1.50;;;12.30;99.90;;;;;;2025434;29;20204;-76
2021/07/27 02:28:16;;;;;;;2.72;2.17;;;12.30;99.90;;;;;;2025821;29;20223;-75
2021/07/27 02:29:17;;;;;;;2.72;1.98;;;12.30;99.90;;;;;;2017812;29;20190;-75
2021/07/27 02:30:17;;;;;;;1.60;1.50;;;12.30;99.90;;;;;;2025682;29;20274;-74
2021/07/27 02:31:42;;;;;;;3.70;1.70;;;12.30;99.90;;;;;;2026178;29;20216;-75
2021/07/27 02:32:40;;;;;;;0.82;0.82;;;12.30;99.90;;;;;;2025370;29;20190;-75
2021/07/27 02:33:41;;;;;;;2.03;1.65;;;12.30;99.90;;;;;;2025892;29;20182;-75
2021/07/27 02:34:41;;;;;;;2.13;1.03;;;12.30;99.90;;;;;;2025765;29;20186;-75
2021/07/27 02:35:42;;;;;;;1.23;1.03;;;12.30;99.90;;;;;;2017757;29;20240;-75
2021/07/27 02:36:43;;;;;;;1.60;1.50;;;12.30;99.90;;;;;;2025644;29;20249;-75
2021/07/27 02:37:44;;;;;;;1.53;1.43;;;12.30;99.90;;;;;;2025315;29;20269;-75
2021/07/27 02:38:47;;;;;;;1.40;1.40;;;12.30;99.90;;;;;;2017904;29;20186;-75
2021/07/27 02:39:48;;;;;;;1.75;1.60;;;12.40;99.90;;;;;;2010249;29;20201;-75
2021/07/27 02:40:48;;;;;;;1.70;1.57;;;12.30;99.90;;;;;;2010137;29;20207;-75
2021/07/27 02:41:49;;;;;;;2.63;1.90;;;12.40;99.90;;;;;;2025508;29;20260;-76
2021/07/27 02:42:50;;;;;;;1.73;1.57;;;12.40;99.90;;;;;;2026383;29;20188;-75
2021/07/27 02:43:50;;;;;;;1.63;1.30;;;12.40;99.90;;;;;;2026160;29;20686;-75
2021/07/27 02:44:52;;;;;;;1.33;1.33;;;12.40;99.90;;;;;;2025540;29;20733;-75
2021/07/27 02:45:52;;;;;;;2.53;1.60;;;12.50;99.90;;;;;;2017838;29;20189;-76
2021/07/27 02:46:53;;;;;;;1.67;1.30;;;12.50;99.90;;;;;;2025344;29;20269;-76
2021/07/27 02:47:54;;;;;;;1.53;1.40;;;12.50;99.90;;;;;;2025354;29;20277;-76
2021/07/27 02:48:55;;;;;;;2.13;1.70;;;12.50;99.90;;;;;;2017804;29;20684;-76
2021/07/27 02:49:55;;;;;;;3.60;1.93;;;12.50;99.90;;;;;;2025474;29;20613;-77
2021/07/27 02:51:03;;;;;;;1.30;1.30;;;12.50;99.90;;;;;;2025452;29;20237;-75
2021/07/27 02:52:04;;;;;;;1.88;1.65;;;12.50;99.90;;;;;;2025344;29;20684;-75
2021/07/27 02:53:05;;;;;;;1.97;1.30;;;12.50;99.90;;;;;;2025988;29;20240;-74
2021/07/27 02:54:07;;;;;;;0.80;0.80;;;12.50;99.90;;;;;;2026152;29;20185;-75
2021/07/27 02:55:09;;;;;;;1.75;1.65;;;12.50;99.90;;;;;;2026154;29;20192;-75
2021/07/27 02:56:14;;;;;;;2.58;2.38;;;12.50;99.90;;;;;;2025976;29;20197;-75
2021/07/27 02:57:16;;;;;;;0.82;0.82;;;12.50;99.90;;;;;;2025949;29;20186;-76
2021/07/27 02:58:16;;;;;;;1.83;1.30;;;12.50;99.90;;;;;;2025125;29;20197;-75
2021/07/27 02:59:17;;;;;;;1.60;1.40;;;12.50;99.90;;;;;;2017914;29;20678;-75
2021/07/27 03:00:18;;;;;;;1.23;1.10;;;12.50;99.90;;;;;;2017395;29;20233;-75
2021/07/27 03:01:19;;;;;;;2.05;1.40;;;12.50;99.90;;;;;;2020226;29;20400;-76
2021/07/27 03:02:32;;;;;;;1.67;1.57;;;12.50;99.90;;;;;;2025432;29;20189;-75
2021/07/27 03:03:32;;;;;;;1.30;1.20;;;12.50;99.90;;;;;;2026189;29;20306;-75
2021/07/27 03:04:33;;;;;;;2.60;2.17;;;12.50;99.90;;;;;;2026081;29;20657;-75
2021/07/27 03:05:34;;;;;;;1.47;1.37;;;12.50;99.90;;;;;;2017738;29;20210;-75
2021/07/27 03:06:34;;;;;;;1.70;1.60;;;12.50;99.90;;;;;;2017853;29;20874;-77
2021/07/27 03:07:48;;;;;;;2.03;1.90;;;12.50;99.90;;;;;;2033382;29;20180;-74
2021/07/27 03:09:45;;;;;;;1.42;1.33;;;12.50;99.90;;;;;;2026250;29;20179;-75
2021/07/27 03:10:21;;;;;;;1.67;1.58;;;12.50;99.90;;;;;;2028592;29;20210;-76
2021/07/27 03:11:23;;;;;;;1.42;1.38;;;12.50;99.90;;;;;;2025301;29;20582;-75
2021/07/27 03:12:23;;;;;;;2.10;1.85;;;12.50;99.90;;;;;;2025406;29;20217;-74
2021/07/27 03:13:24;;;;;;;1.40;1.37;;;12.50;99.90;;;;;;2025778;29;20208;-75
2021/07/27 03:14:26;;;;;;;3.20;2.10;;;12.50;99.90;;;;;;2025867;29;20233;-75
2021/07/27 03:15:29;;;;;;;1.60;1.40;;;12.50;99.90;;;;;;2025051;29;20242;-75
2021/07/27 03:16:30;;;;;;;1.27;1.20;;;12.50;99.90;;;;;;2017922;29;20731;-75
2021/07/27 03:17:30;;;;;;;2.07;1.97;;;12.50;99.90;;;;;;2017876;29;20191;-75
2021/07/27 03:18:31;;;;;;;2.10;1.97;;;12.50;99.90;;;;;;2017474;29;20748;-76
2021/07/27 03:19:32;;;;;;;1.50;1.40;;;12.50;99.90;;;;;;2025241;29;20197;-75
2021/07/27 03:20:33;;;;;;;1.80;1.70;;;12.50;99.90;;;;;;2025949;29;20217;-76
2021/07/27 03:21:34;;;;;;;1.10;1.10;;;12.50;99.90;;;;;;2025167;29;20234;-74
2021/07/27 03:22:35;;;;;;;1.37;1.20;;;12.50;99.90;;;;;;2017767;29;20327;-76
2021/07/27 03:23:36;;;;;;;2.42;1.85;;;12.50;99.90;;;;;;2017706;29;20269;-75
2021/07/27 03:24:36;;;;;;;2.07;1.90;;;12.50;99.90;;;;;;2017473;29;20182;-76
2021/07/27 03:25:39;;;;;;;1.47;1.37;;;12.50;99.90;;;;;;2017265;29;20322;-75
2021/07/27 03:26:40;;;;;;;2.03;1.88;;;12.50;99.90;;;;;;2017807;29;20278;-74
2021/07/27 03:27:41;;;;;;;2.13;2.03;;;12.50;99.90;;;;;;2017435;29;20182;-75
2021/07/27 03:28:43;;;;;;;1.42;1.33;;;12.50;99.90;;;;;;2025366;29;20645;-76
2021/07/27 03:29:44;;;;;;;1.35;1.27;;;12.50;99.90;;;;;;2017298;29;20182;-75
2021/07/27 03:30:44;;;;;;;1.40;1.30;;;12.50;99.90;;;;;;2017180;29;20659;-75
2021/07/27 03:31:45;;;;;;;1.20;1.10;;;12.50;99.90;;;;;;2025425;29;20241;-76
2021/07/27 03:32:48;;;;;;;0.93;0.93;;;12.50;99.90;;;;;;2025807;29;20202;-74
2021/07/27 03:33:49;;;;;;;2.25;2.05;;;12.60;99.90;;;;;;2025202;29;20207;-75
2021/07/27 03:34:50;;;;;;;1.23;1.13;;;12.60;99.90;;;;;;2025316;29;20590;-75
2021/07/27 03:35:50;;;;;;;5.63;2.03;;;12.60;99.90;;;;;;2025650;29;20216;-76
2021/07/27 03:36:51;;;;;;;1.30;1.20;;;12.50;99.90;;;;;;2025245;29;20669;-75
2021/07/27 03:37:52;;;;;;;1.93;1.07;;;12.50;99.90;;;;;;2017483;29;20257;-75
2021/07/27 03:38:52;;;;;;;1.43;1.33;;;12.50;99.90;;;;;;2025434;29;20725;-76
2021/07/27 03:39:53;;;;;;;1.07;1.07;;;12.40;99.90;;;;;;2025110;29;20189;-76
2021/07/27 03:41:09;;;;;;;1.37;1.30;;;12.50;99.90;;;;;;2025214;29;20260;-75
2021/07/27 03:42:09;;;;;;;2.00;1.85;;;12.40;99.90;;;;;;2025375;29;20177;-75
2021/07/27 03:43:10;;;;;;;1.87;1.63;;;12.40;99.90;;;;;;2025234;29;20245;-75
2021/07/27 03:44:14;;;;;;;2.40;2.10;;;12.30;99.90;;;;;;2025301;29;20269;-75
2021/07/27 03:45:15;;;;;;;1.10;1.10;;;12.30;99.90;;;;;;2025066;29;20210;-76
2021/07/27 03:46:15;;;;;;;1.20;1.10;;;12.40;99.90;;;;;;2025173;29;20190;-76
2021/07/27 03:47:16;;;;;;;1.80;1.70;;;12.40;99.90;;;;;;2025705;29;20184;-74
2021/07/27 03:48:17;;;;;;;1.97;1.77;;;12.40;99.90;;;;;;2025764;29;20182;-76
2021/07/27 03:49:17;;;;;;;1.07;1.00;;;12.40;99.90;;;;;;2025767;29;20794;-76
2021/07/27 03:50:18;;;;;;;1.40;1.30;;;12.40;99.90;;;;;;2025621;29;20186;-73
2021/07/27 03:51:19;;;;;;;1.80;1.33;;;12.40;99.90;;;;;;2025631;29;20182;-76
2021/07/27 03:52:19;;;;;;;1.80;1.67;;;12.40;99.90;;;;;;2017231;29;20642;-75
2021/07/27 03:53:24;;;;;;;2.03;1.63;;;12.40;99.90;;;;;;2017714;29;20594;-74
2021/07/27 03:54:30;;;;;;;1.40;1.30;;;12.40;99.90;;;;;;2024915;29;20186;-75
2021/07/27 03:55:34;;;;;;;1.25;1.20;;;12.40;99.90;;;;;;2010136;29;20199;-74
2021/07/27 03:56:34;;;;;;;2.22;1.48;;;12.40;99.90;;;;;;2017590;29;20198;-75
2021/07/27 03:57:35;;;;;;;2.23;2.03;;;12.40;99.90;;;;;;2016479;29;20654;-76
2021/07/27 03:58:36;;;;;;;1.50;1.40;;;12.40;99.90;;;;;;2016717;29;20178;-76
2021/07/27 03:59:36;;;;;;;1.63;1.53;;;12.30;99.90;;;;;;2016806;29;20182;-74
2021/07/27 04:00:37;;;;;;;0.90;0.90;;;12.30;99.90;;;;;;2024362;29;20209;-76
2021/07/27 04:01:38;;;;;;;1.23;1.13;;;12.20;99.90;;;;;;2024487;29;20186;-76
2021/07/27 04:02:39;;;;;;;1.20;1.03;;;12.20;99.90;;;;;;2016690;29;20218;-75
2021/07/27 04:03:39;;;;;;;1.73;1.37;;;12.20;99.90;;;;;;2016863;29;20696;-76
2021/07/27 04:04:40;;;;;;;1.87;1.77;;;12.10;99.90;;;;;;2016780;29;20427;-76
2021/07/27 04:05:43;;;;;;;1.07;1.07;;;12.00;99.90;;;;;;2017282;29;20214;-75
2021/07/27 04:06:44;;;;;;;2.58;1.63;;;11.90;99.90;;;;;;2010829;29;20183;-76
2021/07/27 04:07:45;;;;;;;3.65;1.77;;;11.90;99.90;;;;;;2017843;29;20238;-75
2021/07/27 04:08:46;;;;;;;1.37;1.37;;;11.80;99.90;;;;;;2025478;29;20787;-76
2021/07/27 04:09:46;;;;;;;1.17;1.07;;;11.90;99.90;;;;;;2025640;29;20208;-74
2021/07/27 04:10:47;;;;;;;1.53;1.43;;;11.80;99.90;;;;;;2027241;29;20198;-76
2021/07/27 04:11:48;;;;;;;0.77;0.77;;;11.90;99.90;;;;;;2027421;29;20273;-76
2021/07/27 04:12:49;;;;;;;1.00;1.00;;;11.90;99.90;;;;;;2026957;29;20302;-75
2021/07/27 04:13:50;;;;;;;1.20;1.10;;;11.90;99.90;;;;;;2019348;29;20190;-76
2021/07/27 04:14:52;;;;;;;1.55;1.25;;;11.90;99.90;;;;;;2018353;29;20189;-76
2021/07/27 04:15:53;;;;;;;0.98;0.93;;;11.90;99.90;;;;;;2010534;29;20183;-76
2021/07/27 04:16:53;;;;;;;1.17;1.07;;;11.90;99.90;;;;;;2018265;29;20182;-75
2021/07/27 04:17:54;;;;;;;1.53;1.43;;;11.90;99.90;;;;;;2026016;29;20182;-75
2021/07/27 04:18:55;;;;;;;0.80;0.80;;;11.90;99.90;;;;;;2026211;29;20189;-76
2021/07/27 04:19:55;;;;;;;1.33;1.10;;;11.90;99.90;;;;;;2026527;29;20637;-76
2021/07/27 04:21:00;;;;;;;1.57;1.47;;;11.90;99.90;;;;;;2025419;29;20212;-76
2021/07/27 04:22:01;;;;;;;1.33;1.23;;;11.90;99.90;;;;;;2025506;29;20186;-75
2021/07/27 04:23:02;;;;;;;1.83;1.40;;;11.90;99.90;;;;;;2026729;29;20185;-76
2021/07/27 04:24:03;;;;;;;1.15;1.15;;;11.90;99.90;;;;;;2026377;29;20203;-76
2021/07/27 04:25:04;;;;;;;1.50;1.40;;;11.90;99.90;;;;;;2017901;29;20186;-76
2021/07/27 04:26:05;;;;;;;0.90;0.90;;;11.90;99.90;;;;;;2010319;29;20186;-76
2021/07/27 04:27:06;;;;;;;1.40;1.30;;;11.90;99.90;;;;;;2009885;29;20643;-75
2021/07/27 04:28:07;;;;;;;3.97;1.53;;;11.90;99.90;;;;;;2025752;29;20240;-75
2021/07/27 04:29:07;;;;;;;1.73;1.13;;;11.90;99.90;;;;;;2026101;29;20190;-76
2021/07/27 04:30:08;;;;;;;2.63;1.30;;;11.90;99.90;;;;;;2018354;29;20259;-76
2021/07/27 04:31:09;;;;;;;4.63;1.17;;;11.90;99.90;;;;;;2026299;29;20303;-76
2021/07/27 04:32:10;;;;;;;1.43;1.33;;;11.90;99.90;;;;;;2026085;29;20192;-76
2021/07/27 04:33:11;;;;;;;1.40;1.30;;;11.90;99.90;;;;;;2026077;29;20186;-75
2021/07/27 04:34:12;;;;;;;2.15;1.63;;;11.90;99.90;;;;;;2033859;29;20189;-75
2021/07/27 04:35:12;;;;;;;2.00;1.70;;;11.90;99.90;;;;;;2034001;29;20177;-75
2021/07/27 04:36:13;;;;;;;3.40;1.47;;;11.90;99.90;;;;;;2026829;29;20186;-75
2021/07/27 04:37:14;;;;;;;1.40;1.30;;;11.80;99.90;;;;;;2026040;29;20265;-75
2021/07/27 04:38:14;;;;;;;2.93;1.97;;;11.80;99.90;;;;;;2026061;29;20196;-75
2021/07/27 04:39:15;;;;;;;1.23;1.13;;;11.80;99.90;;;;;;2026694;29;20249;-76
2021/07/27 04:40:16;;;;;;;1.27;1.27;;;11.80;99.90;;;;;;2026540;29;20272;-75
2021/07/27 04:41:17;;;;;;;1.05;0.88;;;11.80;99.90;;;;;;2026644;29;20272;-75
2021/07/27 04:42:18;;;;;;;0.93;0.93;;;11.90;99.90;;;;;;2026063;29;20186;-74
2021/07/27 04:43:19;;;;;;;1.47;1.37;;;11.90;99.90;;;;;;2018371;29;20215;-75
2021/07/27 04:44:20;;;;;;;1.92;1.60;;;11.90;99.90;;;;;;2018404;29;20178;-75
2021/07/27 04:45:20;;;;;;;1.17;1.13;;;11.90;99.90;;;;;;2018191;29;20788;-75
2021/07/27 04:46:21;;;;;;;2.00;1.33;;;11.90;99.90;;;;;;2025959;29;20276;-75
2021/07/27 04:47:22;;;;;;;2.13;1.90;;;11.90;99.90;;;;;;2018328;29;20223;-76
2021/07/27 04:48:23;;;;;;;2.03;1.92;;;12.00;99.90;;;;;;2025915;29;20174;-75
2021/07/27 04:49:24;;;;;;;5.17;2.37;;;12.00;99.90;;;;;;2026473;29;20201;-76
2021/07/27 04:50:24;;;;;;;1.77;1.67;;;12.00;99.90;;;;;;2025995;29;20206;-76
2021/07/27 04:51:25;;;;;;;1.10;1.00;;;12.00;99.90;;;;;;2010543;29;20195;-76
2021/07/27 04:52:27;;;;;;;3.87;1.83;;;12.10;99.90;;;;;;2018396;29;20183;-75
2021/07/27 04:53:30;;;;;;;7.80;2.50;;;12.10;99.90;;;;;;2026507;29;20673;-76
2021/07/27 04:54:41;;;;;;;1.85;1.63;;;12.10;99.90;;;;;;2026591;29;20652;-76
2021/07/27 04:55:41;;;;;;;0.80;0.80;;;12.10;99.90;;;;;;2025585;29;20218;-75
2021/07/27 04:56:42;;;;;;;1.63;1.50;;;12.10;99.90;;;;;;2020662;29;20202;-75
2021/07/27 04:57:43;;;;;;;1.93;1.67;;;12.20;99.90;;;;;;2027881;29;20177;-75
2021/07/27 04:58:44;;;;;;;1.07;1.07;;;12.20;99.90;;;;;;2020748;29;20199;-76
2021/07/27 04:59:44;;;;;;;2.70;1.50;;;12.20;99.90;;;;;;2012866;29;20198;-75
2021/07/27 05:00:45;;;;;;;2.97;1.70;;;12.20;99.90;;;;;;2020876;29;20210;-76
2021/07/27 05:01:46;;;;;;;1.63;1.50;;;12.20;99.90;;;;;;2028585;29;20174;-76
2021/07/27 05:02:46;;;;;;;1.50;1.40;;;12.20;99.90;;;;;;2037593;29;20196;-75
2021/07/27 05:03:47;;;;;;;1.97;1.57;;;12.30;99.90;;;;;;2034270;29;20193;-76
2021/07/27 05:04:48;;;;;;;1.87;1.77;;;12.30;99.90;;;;;;2028652;29;20189;-76
2021/07/27 05:05:48;;;;;;;1.10;1.10;;;12.40;99.90;;;;;;2028512;29;20177;-74
2021/07/27 05:06:49;;;;;;;2.93;1.40;;;12.40;99.90;;;;;;2028383;29;20186;-73
2021/07/27 05:07:50;;;;;;;1.37;1.27;;;12.40;99.90;;;;;;2028359;29;20190;-76
2021/07/27 05:08:51;;;;;;;2.10;1.83;;;12.40;99.90;;;;;;2028635;29;20368;-75
2021/07/27 05:09:52;;;;;;;1.63;1.52;;;12.40;99.90;;;;;;2028572;29;20182;-76
2021/07/27 05:10:52;;;;;;;0.70;0.70;;;12.40;99.90;;;;;;2028293;29;20229;-76
2021/07/27 05:11:56;;;;;;;2.57;0.90;;;12.50;99.90;;;;;;2028298;29;20193;-75
2021/07/27 05:12:58;;;;;;;1.83;1.50;;;12.60;99.90;;;;;;2021205;29;20247;-75
2021/07/27 05:13:59;;;;;;;1.15;1.13;;;12.60;99.90;;;;;;2028645;29;20206;-75
2021/07/27 05:14:59;;;;;;;1.63;1.53;;;12.70;99.90;;;;;;2037037;29;20188;-74
2021/07/27 05:16:04;;;;;;;1.37;1.27;;;12.70;99.90;;;;;;2036844;29;20256;-76
2021/07/27 05:17:10;;;;;;;2.75;1.50;;;12.70;99.90;;;;;;2036394;29;20698;-75
2021/07/27 05:18:10;;;;;;;1.70;1.50;;;12.80;99.90;;;;;;2029158;29;20178;-76
2021/07/27 05:19:11;;;;;;;2.50;1.30;;;12.80;99.90;;;;;;2028604;29;20597;-73
2021/07/27 05:20:13;;;;;;;1.70;1.20;;;12.80;99.90;;;;;;2036208;29;20186;-75
2021/07/27 05:21:16;;;;;;;1.63;1.52;;;12.90;99.90;;;;;;2044212;29;20275;-74
2021/07/27 05:22:17;;;;;;;4.32;1.35;;;12.90;99.90;;;;;;2028325;29;20609;-75
2021/07/27 05:23:17;;;;;;;2.23;1.60;;;13.00;99.90;;;;;;2028534;29;20273;-75
2021/07/27 05:24:18;;;;;;;0.97;0.73;;;12.90;99.90;;;;;;2036312;29;20618;-75
2021/07/27 05:25:19;;;;;;;2.07;1.87;;;13.00;99.90;;;;;;2028495;29;20292;-75
2021/07/27 05:26:24;;;;;;;1.65;1.15;;;13.00;99.90;;;;;;2028549;29;20574;-75
2021/07/27 05:27:26;;;;;;;1.85;1.45;;;13.10;99.90;;;;;;2028868;29;20189;-75
2021/07/27 05:28:27;;;;;;;0.70;0.70;;;13.20;99.90;;;;;;2027454;29;20253;-75
2021/07/27 05:29:27;;;;;;;1.40;1.30;;;13.30;99.90;;;;;;2027258;29;20178;-75
2021/07/27 05:30:28;;;;;;;1.83;1.73;;;13.30;99.90;;;;;;2027244;29;20253;-75
2021/07/27 05:31:29;;;;;;;1.77;1.53;;;13.40;99.90;;;;;;2035284;29;20245;-75
2021/07/27 05:32:30;;;;;;;1.03;1.03;;;13.40;99.90;;;;;;2034785;29;20189;-75
2021/07/27 05:33:31;;;;;;;2.53;1.13;;;13.50;99.90;;;;;;2027296;29;20204;-75
2021/07/27 05:34:32;;;;;;;1.00;1.00;;;13.50;99.90;;;;;;2027082;29;20209;-74
2021/07/27 05:35:32;;;;;;;1.73;1.63;;;13.40;99.90;;;;;;2035052;29;20188;-75
2021/07/27 05:36:34;;;;;;;2.07;1.27;;;13.50;99.90;;;;;;2027104;29;20191;-76
2021/07/27 05:37:35;;;;;;;1.83;1.27;;;13.60;99.90;;;;;;2027467;29;20190;-75
2021/07/27 05:38:36;;;;;;;2.00;1.45;;;13.60;99.90;;;;;;2042727;29;20180;-74
2021/07/27 05:39:37;;;;;;;1.30;1.20;;;13.60;99.90;;;;;;2035022;29;20189;-75
2021/07/27 05:40:37;;;;;;;2.37;1.43;;;13.60;99.90;;;;;;2027166;29;20285;-74
2021/07/27 05:41:38;;;;;;;2.63;1.47;;;13.70;99.90;;;;;;2027189;29;20178;-75